Time;durP1;ratioP1;P1;durP2;ratioP2;P2;SDS_P1;SDS_P2;PMS_P1;PMS_P2;Temp;Humidity;BMP_temperature;BMP_pressure;BME280_temperature;BME280_humidity;BME280_pressure;Samples;Min_cycle;Max_cycle;Signal;HPM_P1;HPM_P2
2022/04/27 00:00:30;;;;;;;9.48;4.72;;;11.30;99.90;;;;;;5071784;28;20063;-68
2022/04/27 00:03:34;;;;;;;8.82;4.95;;;11.30;99.90;;;;;;5071941;28;20048;-68
2022/04/27 00:06:38;;;;;;;8.73;4.80;;;11.30;99.90;;;;;;5071286;28;20036;-69
2022/04/27 00:09:42;;;;;;;9.95;4.65;;;11.30;99.90;;;;;;5071957;28;20047;-68
2022/04/27 00:12:47;;;;;;;8.93;4.75;;;11.50;99.90;;;;;;5071701;28;20151;-69
2022/04/27 00:15:51;;;;;;;13.32;5.15;;;11.50;99.90;;;;;;5071659;28;20498;-69
2022/04/27 00:18:55;;;;;;;6.85;4.00;;;11.40;99.90;;;;;;5071443;28;20036;-69
2022/04/27 00:21:59;;;;;;;9.88;3.63;;;11.40;99.90;;;;;;5059282;28;20525;-69
2022/04/27 00:25:04;;;;;;;5.78;4.05;;;11.40;99.90;;;;;;5071645;28;20043;-68
2022/04/27 00:28:08;;;;;;;10.07;4.75;;;11.30;99.90;;;;;;5071131;28;20395;-68
2022/04/27 00:31:12;;;;;;;9.00;5.28;;;11.10;99.90;;;;;;5059529;28;20502;-68
2022/04/27 00:34:16;;;;;;;10.88;4.30;;;10.90;99.90;;;;;;5059130;28;20387;-68
2022/04/27 00:37:20;;;;;;;10.82;5.07;;;10.80;99.90;;;;;;5071042;28;20059;-68
2022/04/27 00:40:24;;;;;;;9.98;5.55;;;10.70;99.90;;;;;;5071527;28;20051;-68
2022/04/27 00:43:40;;;;;;;9.68;5.10;;;10.60;99.90;;;;;;5071446;28;20035;-68
2022/04/27 00:46:44;;;;;;;10.60;6.13;;;10.60;99.90;;;;;;5058431;28;20052;-68
2022/04/27 00:49:49;;;;;;;11.88;5.93;;;10.50;99.90;;;;;;5071387;28;20043;-68
2022/04/27 00:52:54;;;;;;;10.25;5.22;;;10.50;99.90;;;;;;5058797;28;20051;-68
2022/04/27 00:55:59;;;;;;;12.23;6.07;;;10.40;99.90;;;;;;5058590;28;20036;-68
2022/04/27 00:59:04;;;;;;;16.75;6.97;;;10.30;99.90;;;;;;5058444;28;20502;-68
2022/04/27 01:02:09;;;;;;;11.95;6.18;;;10.10;99.90;;;;;;5070797;28;20047;-68
2022/04/27 01:05:14;;;;;;;13.60;7.00;;;10.10;99.90;;;;;;5058919;28;20043;-68
2022/04/27 01:08:22;;;;;;;13.27;6.93;;;10.00;99.90;;;;;;5059666;28;20051;-68
2022/04/27 01:11:26;;;;;;;10.32;7.05;;;10.00;99.90;;;;;;5058112;28;20336;-68
2022/04/27 01:14:48;;;;;;;19.98;8.45;;;10.00;99.90;;;;;;5058715;28;20063;-68
2022/04/27 01:17:55;;;;;;;16.60;7.35;;;10.00;99.90;;;;;;5058179;28;20047;-68
2022/04/27 01:21:02;;;;;;;14.73;7.85;;;10.00;99.90;;;;;;5058218;28;20052;-68
2022/04/27 01:24:10;;;;;;;12.60;6.80;;;10.00;99.90;;;;;;5058508;28;20510;-68
2022/04/27 01:27:15;;;;;;;12.75;6.93;;;10.00;99.90;;;;;;5069850;28;20067;-69
2022/04/27 01:30:19;;;;;;;14.10;7.63;;;10.00;99.90;;;;;;5070871;28;20059;-69
2022/04/27 01:33:24;;;;;;;12.32;7.00;;;10.00;99.90;;;;;;5058117;28;20036;-69
2022/04/27 01:36:28;;;;;;;15.30;6.70;;;10.00;99.90;;;;;;5057235;28;20390;-68
2022/04/27 01:39:35;;;;;;;16.13;7.45;;;10.00;99.90;;;;;;5070657;28;20056;-69
2022/04/27 01:42:40;;;;;;;13.60;6.90;;;10.00;99.90;;;;;;5057994;28;20043;-68
2022/04/27 01:45:45;;;;;;;13.45;7.00;;;10.10;99.90;;;;;;5058120;28;20043;-68
2022/04/27 01:48:50;;;;;;;14.45;7.45;;;10.10;99.90;;;;;;5070088;28;20047;-69
2022/04/27 01:55:16;;;;;;;19.63;8.85;;;10.10;99.90;;;;;;5057876;28;20039;-68
2022/04/27 01:58:22;;;;;;;18.25;8.32;;;10.00;99.90;;;;;;5070315;28;20039;-68
2022/04/27 02:01:29;;;;;;;12.57;7.60;;;10.00;99.90;;;;;;5057747;28;20399;-68
2022/04/27 02:04:37;;;;;;;14.10;7.60;;;10.00;99.90;;;;;;5057995;28;20241;-68
2022/04/27 02:07:45;;;;;;;14.95;7.47;;;9.90;99.90;;;;;;5057468;28;20052;-69
2022/04/27 02:10:49;;;;;;;15.98;7.57;;;9.90;99.90;;;;;;5057629;28;20035;-68
2022/04/27 02:13:55;;;;;;;17.63;9.98;;;10.00;99.90;;;;;;5070045;28;20367;-69
2022/04/27 02:17:00;;;;;;;25.52;12.88;;;9.90;99.90;;;;;;5057138;28;20395;-68
2022/04/27 02:20:05;;;;;;;15.02;8.52;;;9.90;99.90;;;;;;5057416;28;20067;-68
2022/04/27 02:23:09;;;;;;;17.88;8.30;;;9.90;99.90;;;;;;5057478;28;20046;-68
2022/04/27 02:26:13;;;;;;;14.65;8.43;;;9.90;99.90;;;;;;5069712;28;20067;-68
2022/04/27 02:29:17;;;;;;;16.48;8.95;;;9.80;99.90;;;;;;5057538;28;20498;-68
2022/04/27 02:32:21;;;;;;;17.27;8.48;;;9.80;99.90;;;;;;5057588;28;20035;-68
2022/04/27 02:35:25;;;;;;;13.52;7.70;;;9.70;99.90;;;;;;5057687;28;20052;-68
2022/04/27 02:38:29;;;;;;;13.70;8.07;;;9.70;99.90;;;;;;5073093;28;20055;-68
2022/04/27 02:41:34;;;;;;;13.60;6.55;;;9.70;99.90;;;;;;5061154;28;20044;-68
2022/04/27 02:44:40;;;;;;;12.18;6.75;;;9.70;99.90;;;;;;5061342;28;20043;-68
2022/04/27 02:47:44;;;;;;;13.07;6.75;;;9.70;99.90;;;;;;5060578;28;20250;-68
2022/04/27 02:54:10;;;;;;;12.73;6.63;;;9.70;99.90;;;;;;5061096;28;20403;-68
2022/04/27 02:57:16;;;;;;;12.60;6.28;;;9.70;99.90;;;;;;5060435;28;20047;-68
2022/04/27 03:00:20;;;;;;;11.45;6.10;;;9.70;99.90;;;;;;5061065;28;20055;-68
2022/04/27 03:03:25;;;;;;;16.48;6.75;;;9.70;99.90;;;;;;5060786;28;20134;-68
2022/04/27 03:06:30;;;;;;;11.80;7.60;;;9.70;99.90;;;;;;5060422;28;20486;-68
2022/04/27 03:09:34;;;;;;;16.77;7.30;;;9.60;99.90;;;;;;5060994;28;20052;-68
2022/04/27 03:12:38;;;;;;;13.75;7.10;;;9.60;99.90;;;;;;5072660;28;20055;-68
2022/04/27 03:15:44;;;;;;;14.68;7.15;;;9.60;99.90;;;;;;5060852;28;20048;-68
2022/04/27 03:18:48;;;;;;;12.82;7.28;;;9.60;99.90;;;;;;5060047;28;20039;-68
2022/04/27 03:21:53;;;;;;;16.10;8.13;;;9.60;99.90;;;;;;5072941;28;20059;-68
2022/04/27 03:24:58;;;;;;;15.82;7.88;;;9.50;99.90;;;;;;5060666;28;20048;-68
2022/04/27 03:28:04;;;;;;;18.63;9.05;;;9.50;99.90;;;;;;5060181;28;20067;-68
2022/04/27 03:31:10;;;;;;;23.50;8.98;;;9.40;99.90;;;;;;5060480;28;20056;-68
2022/04/27 03:34:15;;;;;;;20.13;9.73;;;9.40;99.90;;;;;;5060206;28;20043;-68
2022/04/27 03:37:19;;;;;;;17.83;9.65;;;9.40;99.90;;;;;;5059662;28;20065;-68
2022/04/27 03:40:23;;;;;;;16.83;9.25;;;9.40;99.90;;;;;;5060250;28;20028;-68
2022/04/27 03:43:29;;;;;;;27.83;11.50;;;9.40;99.90;;;;;;5060025;28;20047;-68
2022/04/27 03:46:33;;;;;;;21.35;11.25;;;9.40;99.90;;;;;;5059800;28;20055;-68
2022/04/27 03:49:37;;;;;;;20.80;11.70;;;9.50;99.90;;;;;;5058899;28;20043;-68
2022/04/27 03:52:42;;;;;;;21.00;10.93;;;9.60;99.90;;;;;;5059572;28;20391;-68
2022/04/27 03:55:46;;;;;;;20.05;12.27;;;9.60;99.90;;;;;;5059623;28;20039;-68
2022/04/27 03:58:50;;;;;;;23.50;12.82;;;9.70;99.90;;;;;;5059232;28;20506;-68
2022/04/27 04:01:54;;;;;;;19.55;13.00;;;9.70;99.90;;;;;;5059352;28;20477;-68
2022/04/27 04:04:58;;;;;;;30.88;12.65;;;9.60;99.90;;;;;;5071646;28;20043;-68
2022/04/27 04:08:04;;;;;;;18.73;11.77;;;9.60;99.90;;;;;;5059023;28;20407;-68
2022/04/27 04:11:11;;;;;;;20.63;12.45;;;9.50;99.90;;;;;;5059265;28;20040;-68
2022/04/27 04:14:35;;;;;;;25.60;11.95;;;9.50;99.90;;;;;;5072289;28;20047;-68
2022/04/27 04:17:51;;;;;;;26.85;12.35;;;9.50;99.90;;;;;;5059410;28;20063;-68
2022/04/27 04:21:31;;;;;;;24.60;13.50;;;9.50;99.90;;;;;;5068811;28;20383;-68
2022/04/27 04:28:29;;;;;;;21.52;11.77;;;9.50;99.90;;;;;;5059322;28;20386;-68
2022/04/27 04:31:31;;;;;;;24.55;12.65;;;9.40;99.90;;;;;;5071640;28;20039;-68
2022/04/27 04:34:54;;;;;;;22.75;12.00;;;9.40;99.90;;;;;;5071410;28;20039;-68
2022/04/27 04:37:58;;;;;;;24.30;12.82;;;9.50;99.90;;;;;;5058788;28;20051;-68
2022/04/27 04:41:03;;;;;;;18.52;11.55;;;9.50;99.90;;;;;;5058953;28;20039;-68
2022/04/27 04:44:28;;;;;;;24.45;12.30;;;9.70;99.90;;;;;;5058713;28;20043;-68
2022/04/27 04:48:08;;;;;;;17.83;10.13;;;9.80;99.90;;;;;;4992142;28;20393;-68
2022/04/27 04:51:21;;;;;;;18.30;9.98;;;10.10;99.90;;;;;;5071246;28;20483;-68
2022/04/27 04:54:27;;;;;;;18.77;10.68;;;10.30;99.90;;;;;;5070980;28;20075;-68
2022/04/27 04:57:53;;;;;;;17.17;9.85;;;10.50;99.90;;;;;;5057968;28;20051;-68
2022/04/27 05:01:14;;;;;;;19.58;10.88;;;10.60;99.90;;;;;;5070098;28;20055;-68
2022/04/27 05:04:38;;;;;;;16.88;10.30;;;10.70;99.90;;;;;;5055036;28;20170;-68
2022/04/27 05:08:07;;;;;;;19.15;10.20;;;10.80;99.90;;;;;;5070709;28;20498;-69
2022/04/27 05:11:13;;;;;;;19.20;9.15;;;11.10;99.90;;;;;;5070931;28;20497;-68
2022/04/27 05:14:39;;;;;;;16.20;8.45;;;13.00;99.90;;;;;;5057965;28;20043;-68
2022/04/27 05:18:01;;;;;;;12.27;7.65;;;14.60;99.90;;;;;;5070286;28;20048;-68
2022/04/27 05:21:23;;;;;;;14.02;7.78;;;15.90;99.90;;;;;;5070953;28;20051;-69
2022/04/27 05:24:42;;;;;;;13.55;7.80;;;16.60;99.90;;;;;;5058799;28;20055;-69
2022/04/27 05:27:51;;;;;;;16.45;9.05;;;15.40;99.90;;;;;;5058016;28;20047;-69
2022/04/27 05:34:48;;;;;;;17.75;8.23;;;13.60;99.90;;;;;;5070348;28;20038;-69
2022/04/27 05:38:12;;;;;;;13.80;7.40;;;14.20;99.90;;;;;;5049112;28;20059;-69
2022/04/27 05:41:34;;;;;;;19.10;6.00;;;17.20;99.90;;;;;;5070217;28;20411;-69
2022/04/27 05:45:01;;;;;;;11.05;6.30;;;19.90;99.90;;;;;;5057936;28;20044;-69
2022/04/27 05:48:31;;;;;;;9.73;5.80;;;21.80;99.90;;;;;;5067875;28;20107;-69
2022/04/27 05:51:42;;;;;;;15.43;5.78;;;22.90;99.90;;;;;;5058156;28;20043;-68
2022/04/27 05:55:05;;;;;;;12.95;4.90;;;21.90;99.90;;;;;;5058050;28;20044;-68
2022/04/27 05:58:30;;;;;;;13.05;6.13;;;19.60;99.90;;;;;;5049975;28;20055;-68
2022/04/27 06:01:56;;;;;;;8.73;5.22;;;18.90;99.90;;;;;;5067564;28;20056;-69
2022/04/27 06:05:01;;;;;;;9.48;5.15;;;18.60;99.90;;;;;;5056398;28;20042;-69
2022/04/27 06:08:06;;;;;;;10.43;5.35;;;20.00;99.90;;;;;;5045185;28;20039;-68
2022/04/27 06:11:11;;;;;;;8.60;5.18;;;20.60;99.90;;;;;;5067740;28;20059;-69
2022/04/27 06:14:35;;;;;;;8.50;4.50;;;20.60;99.90;;;;;;5053568;28;20043;-69
2022/04/27 06:17:40;;;;;;;8.77;4.50;;;22.00;99.90;;;;;;5060627;28;20490;-69
2022/04/27 06:20:45;;;;;;;12.18;5.10;;;22.10;99.90;;;;;;5060249;28;20403;-69
2022/04/27 06:23:49;;;;;;;6.65;3.97;;;22.00;99.90;;;;;;5073987;28;20255;-69
2022/04/27 06:26:54;;;;;;;7.32;5.32;;;22.20;99.90;;;;;;5060136;28;20047;-69
2022/04/27 06:29:58;;;;;;;7.45;4.03;;;22.10;99.90;;;;;;5060577;28;20054;-69
2022/04/27 06:33:02;;;;;;;6.32;3.70;;;21.80;99.90;;;;;;5060065;28;20040;-69
2022/04/27 06:36:06;;;;;;;8.35;4.13;;;21.40;99.90;;;;;;5049488;28;20036;-69
2022/04/27 06:39:14;;;;;;;7.35;4.00;;;22.90;99.90;;;;;;5053419;28;20044;-69
2022/04/27 06:42:24;;;;;;;6.22;3.60;;;24.20;99.90;;;;;;5061018;28;20332;-69
2022/04/27 06:45:47;;;;;;;8.60;3.60;;;24.70;99.20;;;;;;5053252;28;20044;-69
2022/04/27 06:49:10;;;;;;;11.23;4.68;;;24.40;98.50;;;;;;5064636;28;20391;-69
2022/04/27 06:52:42;;;;;;;5.90;3.38;;;23.20;99.90;;;;;;5072188;28;20506;-69
2022/04/27 06:56:04;;;;;;;9.13;3.90;;;24.30;99.30;;;;;;5073119;28;20517;-69
2022/04/27 06:59:28;;;;;;;11.90;3.97;;;25.00;98.30;;;;;;5062470;28;20050;-69
2022/04/27 07:02:38;;;;;;;6.07;3.50;;;22.80;99.20;;;;;;5060515;28;20039;-69
2022/04/27 07:05:42;;;;;;;8.35;3.70;;;23.50;99.40;;;;;;5060047;28;20419;-69
2022/04/27 07:08:48;;;;;;;13.48;3.33;;;23.60;99.80;;;;;;5052781;28;20490;-70
2022/04/27 07:11:54;;;;;;;10.77;3.65;;;23.50;99.90;;;;;;5063842;28;20056;-69
2022/04/27 07:14:58;;;;;;;6.38;3.33;;;23.40;99.90;;;;;;5072272;28;20071;-70
2022/04/27 07:18:02;;;;;;;8.73;3.90;;;23.00;99.90;;;;;;5064614;28;20055;-69
2022/04/27 07:21:08;;;;;;;10.20;4.40;;;21.30;99.90;;;;;;5073089;28;20055;-69
2022/04/27 07:24:11;;;;;;;7.95;3.47;;;20.60;99.90;;;;;;5071710;28;20417;-69
2022/04/27 07:27:17;;;;;;;15.63;3.95;;;20.70;99.90;;;;;;5059575;28;20036;-69
2022/04/27 07:30:23;;;;;;;5.65;2.60;;;22.10;99.90;;;;;;5072201;28;20047;-69
2022/04/27 07:33:27;;;;;;;7.43;3.13;;;24.40;99.90;;;;;;5070839;28;20047;-69
2022/04/27 07:36:32;;;;;;;9.20;2.90;;;26.50;98.40;;;;;;5070985;28;20043;-70
2022/04/27 07:39:36;;;;;;;3.97;2.15;;;27.80;96.10;;;;;;5072139;28;20047;-69
2022/04/27 07:42:41;;;;;;;8.90;3.38;;;28.80;93.80;;;;;;5072387;28;20035;-69
2022/04/27 07:45:46;;;;;;;14.02;8.63;;;29.10;93.10;;;;;;5071872;28;20051;-68
2022/04/27 07:48:51;;;;;;;13.85;9.05;;;28.90;93.00;;;;;;5070416;28;20064;-68
2022/04/27 07:51:55;;;;;;;14.88;9.15;;;25.20;94.60;;;;;;5071936;28;20383;-69
2022/04/27 07:55:00;;;;;;;17.42;10.77;;;25.10;96.10;;;;;;5072601;28;20047;-69
2022/04/27 07:58:05;;;;;;;6.70;2.80;;;26.10;95.40;;;;;;5071782;28;20051;-67
2022/04/27 08:01:09;;;;;;;7.97;2.83;;;27.40;94.10;;;;;;5071577;28;20047;-69
2022/04/27 08:04:16;;;;;;;7.50;2.92;;;26.80;94.50;;;;;;5071833;28;20398;-69
2022/04/27 08:07:20;;;;;;;6.15;2.58;;;25.10;93.90;;;;;;5072058;28;20043;-69
2022/04/27 08:10:24;;;;;;;4.03;1.92;;;26.30;95.40;;;;;;5071869;28;20411;-67
2022/04/27 08:13:28;;;;;;;6.28;2.58;;;29.30;92.50;;;;;;5071545;28;20048;-69
2022/04/27 08:16:36;;;;;;;4.90;2.47;;;28.20;92.40;;;;;;5058968;28;20048;-67
2022/04/27 08:19:40;;;;;;;4.07;2.03;;;28.80;91.30;;;;;;5070731;28;20056;-70
2022/04/27 08:22:44;;;;;;;6.75;2.03;;;28.70;90.60;;;;;;5071968;28;20407;-70
2022/04/27 08:25:49;;;;;;;6.18;2.28;;;28.90;91.00;;;;;;5072097;28;20055;-68
2022/04/27 08:28:53;;;;;;;7.38;2.65;;;30.50;89.10;;;;;;5070495;28;20482;-70
2022/04/27 08:31:57;;;;;;;5.07;2.15;;;28.90;89.10;;;;;;5069662;28;20043;-70
2022/04/27 08:35:01;;;;;;;5.00;2.25;;;28.90;89.00;;;;;;5070808;28;20056;-70
2022/04/27 08:38:08;;;;;;;5.22;2.30;;;27.50;87.80;;;;;;5070514;28;20047;-71
2022/04/27 08:41:12;;;;;;;6.50;2.20;;;27.60;89.60;;;;;;5069831;28;20035;-70
2022/04/27 08:44:17;;;;;;;6.85;2.33;;;28.00;89.60;;;;;;5070031;28;20052;-70
2022/04/27 08:47:23;;;;;;;4.10;2.28;;;30.60;89.60;;;;;;5068911;28;20044;-70
2022/04/27 08:50:27;;;;;;;5.35;2.00;;;32.10;84.80;;;;;;5071021;28;20482;-68
2022/04/27 08:53:33;;;;;;;4.38;2.10;;;30.50;87.20;;;;;;5070602;28;20031;-70
2022/04/27 08:56:37;;;;;;;5.22;1.98;;;29.30;85.10;;;;;;5069576;28;20043;-68
2022/04/27 08:59:41;;;;;;;5.28;2.13;;;32.10;85.50;;;;;;5071079;28;20051;-70
2022/04/27 09:02:46;;;;;;;6.00;2.00;;;34.20;81.90;;;;;;5068346;28;20043;-70
2022/04/27 09:06:16;;;;;;;3.78;1.80;;;34.70;78.60;;;;;;5056868;28;20124;-68
2022/04/27 09:09:34;;;;;;;4.93;2.28;;;30.60;78.10;;;;;;5051270;28;20380;-70
2022/04/27 09:12:52;;;;;;;7.20;2.22;;;31.00;76.60;;;;;;5066295;28;20418;-68
2022/04/27 09:16:01;;;;;;;4.53;2.22;;;33.10;79.00;;;;;;5071556;28;20482;-71
2022/04/27 09:22:27;;;;;;;3.25;1.70;;;34.70;71.10;;;;;;5069965;28;20066;-70
2022/04/27 09:25:36;;;;;;;4.45;1.77;;;32.30;73.20;;;;;;5069456;28;20051;-70
2022/04/27 09:28:46;;;;;;;3.10;1.50;;;33.20;74.50;;;;;;5070426;28;20043;-70
2022/04/27 09:31:57;;;;;;;4.75;1.65;;;34.60;72.30;;;;;;5070962;28;20056;-70
2022/04/27 09:35:03;;;;;;;4.00;1.17;;;35.10;70.80;;;;;;5070812;28;20437;-69
2022/04/27 09:38:16;;;;;;;3.58;1.20;;;35.70;70.90;;;;;;5061638;28;20052;-70
2022/04/27 09:41:42;;;;;;;3.40;1.40;;;36.00;69.60;;;;;;5070845;28;20504;-70
2022/04/27 09:44:46;;;;;;;3.47;1.23;;;35.50;69.40;;;;;;5050743;28;20487;-71
2022/04/27 09:48:00;;;;;;;2.25;1.10;;;34.90;69.40;;;;;;5052750;28;20072;-70
2022/04/27 09:51:12;;;;;;;6.85;1.88;;;33.80;68.10;;;;;;5054689;28;20033;-70
2022/04/27 09:54:24;;;;;;;3.70;1.25;;;31.30;70.90;;;;;;5071295;28;20051;-71
2022/04/27 09:57:31;;;;;;;4.20;1.40;;;31.00;71.90;;;;;;5074077;28;20731;-71
2022/04/27 10:00:36;;;;;;;6.88;1.20;;;31.00;74.00;;;;;;5073308;28;20036;-71
2022/04/27 10:03:46;;;;;;;3.80;1.40;;;31.40;72.10;;;;;;5074271;28;20055;-70
2022/04/27 10:06:52;;;;;;;2.67;1.10;;;30.20;69.40;;;;;;5073367;28;20040;-70
2022/04/27 10:09:57;;;;;;;3.72;1.02;;;29.80;71.90;;;;;;5071390;28;20047;-70
2022/04/27 10:13:02;;;;;;;2.58;1.10;;;30.10;73.00;;;;;;5072464;28;20438;-68
2022/04/27 10:16:07;;;;;;;3.38;1.60;;;30.40;72.30;;;;;;5053898;28;20047;-71
2022/04/27 10:19:11;;;;;;;2.90;1.25;;;30.80;72.50;;;;;;5054151;28;20052;-69
2022/04/27 10:22:32;;;;;;;3.53;1.15;;;31.40;73.00;;;;;;5053787;28;20525;-70
2022/04/27 10:25:37;;;;;;;3.58;1.30;;;31.10;66.50;;;;;;5061682;28;20120;-70
2022/04/27 10:28:50;;;;;;;3.70;1.10;;;30.30;69.50;;;;;;5068650;28;20051;-70
2022/04/27 10:31:54;;;;;;;4.25;1.20;;;31.10;71.00;;;;;;5068154;28;20483;-70
2022/04/27 10:35:19;;;;;;;3.05;0.90;;;31.70;70.30;;;;;;5060382;28;20044;-71
2022/04/27 10:38:24;;;;;;;3.88;1.00;;;32.60;67.60;;;;;;5068816;28;20048;-71
2022/04/27 10:41:28;;;;;;;5.95;1.08;;;33.60;67.80;;;;;;5074136;28;20676;-71
2022/04/27 10:45:06;;;;;;;3.92;1.00;;;35.00;66.00;;;;;;5064675;28;20056;-70
2022/04/27 10:48:17;;;;;;;7.32;1.73;;;36.90;63.10;;;;;;5071813;28;20057;-70
2022/04/27 10:51:22;;;;;;;3.95;1.05;;;37.10;63.60;;;;;;5073060;28;20052;-71
2022/04/27 10:54:28;;;;;;;2.25;1.00;;;38.70;62.60;;;;;;5073145;28;20048;-71
2022/04/27 10:57:32;;;;;;;1.55;0.80;;;39.90;60.50;;;;;;5072731;28;20501;-71
2022/04/27 11:01:01;;;;;;;4.45;1.05;;;38.80;58.50;;;;;;5053904;28;20463;-71
2022/04/27 11:04:07;;;;;;;3.15;0.95;;;38.10;60.30;;;;;;5062434;28;20044;-71
2022/04/27 11:07:29;;;;;;;3.17;0.80;;;38.50;59.00;;;;;;5062889;28;20466;-69
2022/04/27 11:10:34;;;;;;;2.42;1.00;;;37.80;56.80;;;;;;5060194;28;20045;-72
2022/04/27 11:13:38;;;;;;;1.65;0.60;;;38.00;57.80;;;;;;5070707;28;20044;-70
2022/04/27 11:16:44;;;;;;;1.30;0.55;;;38.10;55.10;;;;;;5059888;28;20044;-71
2022/04/27 11:19:48;;;;;;;4.95;0.93;;;39.00;56.40;;;;;;5053115;28;20048;-71
2022/04/27 11:22:52;;;;;;;1.10;0.70;;;39.60;57.80;;;;;;5065387;28;20048;-71
2022/04/27 11:25:59;;;;;;;2.58;0.80;;;40.00;56.30;;;;;;5059835;28;20032;-72
2022/04/27 11:29:04;;;;;;;3.30;1.02;;;40.00;57.10;;;;;;5052217;28;20040;-70
2022/04/27 11:32:09;;;;;;;4.32;0.88;;;38.30;55.40;;;;;;5067592;28;20040;-72
2022/04/27 11:35:14;;;;;;;3.20;1.35;;;37.00;54.80;;;;;;5060528;28;20526;-71
2022/04/27 11:38:21;;;;;;;3.88;1.00;;;34.80;53.70;;;;;;5064829;28;20526;-71
2022/04/27 11:41:25;;;;;;;3.22;1.23;;;34.40;56.60;;;;;;5061751;28;20044;-72
2022/04/27 11:44:30;;;;;;;3.70;1.10;;;31.10;59.60;;;;;;5055046;28;20040;-71
2022/04/27 11:47:34;;;;;;;3.05;0.93;;;34.30;58.00;;;;;;5063388;28;20040;-71
2022/04/27 11:50:41;;;;;;;6.45;1.30;;;34.10;56.10;;;;;;5066296;28;20070;-73
2022/04/27 11:53:47;;;;;;;3.25;1.02;;;36.00;55.30;;;;;;5062815;28;20051;-72
2022/04/27 11:56:56;;;;;;;2.10;0.98;;;37.50;54.40;;;;;;5050009;28;20040;-71
2022/04/27 12:00:03;;;;;;;3.92;1.25;;;39.00;53.80;;;;;;5060297;28;20048;-72
2022/04/27 12:03:16;;;;;;;1.90;0.90;;;39.40;54.20;;;;;;5055507;28;20059;-72
2022/04/27 12:06:24;;;;;;;7.75;1.45;;;39.00;55.80;;;;;;5060225;28;20059;-71
2022/04/27 12:09:28;;;;;;;2.53;0.90;;;37.00;55.00;;;;;;5064354;28;20040;-72
2022/04/27 12:12:37;;;;;;;2.97;1.13;;;37.80;55.80;;;;;;5065594;28;20043;-72
2022/04/27 12:15:44;;;;;;;2.13;1.27;;;34.80;56.20;;;;;;5070874;28;20039;-72
2022/04/27 12:18:53;;;;;;;3.55;1.35;;;36.30;56.80;;;;;;5065327;28;20569;-72
2022/04/27 12:22:13;;;;;;;2.08;1.10;;;37.30;56.40;;;;;;5066153;28;20043;-72
2022/04/27 12:25:18;;;;;;;5.00;1.10;;;37.40;55.30;;;;;;5070172;28;20035;-72
2022/04/27 12:28:30;;;;;;;5.15;1.42;;;37.80;54.90;;;;;;5065339;28;20044;-72
2022/04/27 12:31:37;;;;;;;1.88;1.30;;;37.60;55.50;;;;;;5069782;28;20391;-72
2022/04/27 12:38:11;;;;;;;5.30;1.42;;;36.50;58.50;;;;;;5067057;28;20668;-72
2022/04/27 12:41:32;;;;;;;5.28;1.52;;;35.00;57.60;;;;;;5051218;28;20059;-73
2022/04/27 12:44:41;;;;;;;3.67;1.63;;;33.30;58.20;;;;;;5059207;28;20036;-72
2022/04/27 12:47:46;;;;;;;3.55;1.48;;;33.80;58.90;;;;;;5068652;28;20096;-72
2022/04/27 12:50:50;;;;;;;3.60;1.63;;;31.90;58.40;;;;;;5065172;28;20043;-72
2022/04/27 12:53:54;;;;;;;3.25;1.48;;;31.20;59.40;;;;;;5061610;28;20147;-71
2022/04/27 12:57:01;;;;;;;3.08;1.45;;;31.10;57.10;;;;;;5062332;28;20628;-72
2022/04/27 13:00:07;;;;;;;2.35;1.20;;;32.30;61.70;;;;;;5065155;28;20036;-71
2022/04/27 13:03:13;;;;;;;2.92;1.25;;;33.40;59.20;;;;;;5056984;28;20044;-71
2022/04/27 13:06:18;;;;;;;4.15;1.63;;;33.70;59.00;;;;;;5058193;28;20524;-72
2022/04/27 13:12:45;;;;;;;3.85;1.50;;;32.30;59.80;;;;;;5070937;28;20048;-71
2022/04/27 13:15:50;;;;;;;4.70;1.88;;;33.10;59.20;;;;;;5061285;28;20056;-71
2022/04/27 13:18:55;;;;;;;3.17;1.60;;;32.90;59.80;;;;;;5058146;28;20052;-72
2022/04/27 13:21:59;;;;;;;2.30;1.42;;;30.60;56.40;;;;;;5060566;28;20048;-73
2022/04/27 13:25:04;;;;;;;4.07;1.50;;;28.20;61.10;;;;;;5064818;28;20502;-73
2022/04/27 13:28:09;;;;;;;3.88;1.42;;;27.60;66.50;;;;;;5065162;28;20048;-73
2022/04/27 13:31:15;;;;;;;4.32;1.95;;;29.10;62.80;;;;;;5063666;28;20395;-71
2022/04/27 13:34:19;;;;;;;4.70;2.03;;;28.80;62.40;;;;;;5063474;28;20044;-71
2022/04/27 13:37:23;;;;;;;5.45;1.67;;;29.10;65.70;;;;;;5066553;28;20055;-71
2022/04/27 13:40:28;;;;;;;3.08;1.60;;;29.50;62.80;;;;;;5051826;28;20047;-73
2022/04/27 13:43:32;;;;;;;4.38;1.85;;;29.70;62.90;;;;;;5064269;28;20044;-71
2022/04/27 13:46:37;;;;;;;3.47;1.60;;;29.70;62.40;;;;;;5055888;28;20341;-73
2022/04/27 13:49:41;;;;;;;3.78;1.60;;;29.30;61.20;;;;;;5045582;28;20040;-71
2022/04/27 13:52:44;;;;;;;2.75;1.67;;;27.50;62.10;;;;;;5064942;28;20408;-70
2022/04/27 13:55:50;;;;;;;2.35;1.60;;;28.50;67.30;;;;;;5063779;28;20044;-72
2022/04/27 13:58:54;;;;;;;4.30;1.80;;;29.00;64.40;;;;;;5060129;28;20048;-72
2022/04/27 14:02:01;;;;;;;2.67;1.40;;;29.50;63.20;;;;;;5069966;28;20383;-71
2022/04/27 14:05:07;;;;;;;4.80;1.63;;;29.60;62.60;;;;;;5065652;28;20043;-72
2022/04/27 14:08:12;;;;;;;4.15;1.77;;;29.30;64.20;;;;;;5060115;28;20055;-72
2022/04/27 14:14:40;;;;;;;5.53;2.08;;;28.20;65.90;;;;;;5065440;28;20431;-70
2022/04/27 14:21:06;;;;;;;4.38;2.08;;;28.60;68.60;;;;;;5058108;28;20060;-73
2022/04/27 14:24:11;;;;;;;5.30;1.80;;;28.60;66.90;;;;;;5059665;28;20482;-72
2022/04/27 14:27:15;;;;;;;3.67;1.60;;;28.30;66.10;;;;;;5061092;28;20048;-70
2022/04/27 14:30:19;;;;;;;5.85;1.80;;;28.10;67.30;;;;;;5064055;28;20040;-72
2022/04/27 14:33:24;;;;;;;5.20;1.88;;;28.10;68.70;;;;;;5047892;28;20032;-70
2022/04/27 14:36:28;;;;;;;2.92;1.70;;;28.20;67.80;;;;;;5063363;28;20048;-69
2022/04/27 14:39:33;;;;;;;3.35;1.70;;;28.10;68.10;;;;;;5062587;28;20055;-71
2022/04/27 14:42:37;;;;;;;2.08;1.50;;;28.00;66.10;;;;;;5069892;28;20047;-69
2022/04/27 14:45:42;;;;;;;2.35;1.80;;;27.90;65.00;;;;;;5064818;28;20155;-70
2022/04/27 14:48:47;;;;;;;3.58;1.60;;;28.00;67.80;;;;;;5067801;28;20051;-73
2022/04/27 14:51:51;;;;;;;3.83;1.85;;;28.00;67.00;;;;;;5066478;28;20040;-70
2022/04/27 14:54:55;;;;;;;4.45;1.70;;;27.70;66.80;;;;;;5065114;28;20067;-70
2022/04/27 14:57:59;;;;;;;3.08;1.90;;;27.70;66.40;;;;;;5061740;28;20040;-71
2022/04/27 15:01:03;;;;;;;7.25;2.63;;;27.50;67.90;;;;;;5066071;28;20053;-71
2022/04/27 15:04:07;;;;;;;3.70;2.08;;;27.00;67.50;;;;;;5060373;28;20613;-72
2022/04/27 15:07:11;;;;;;;3.85;2.08;;;27.00;70.10;;;;;;5063332;28;20364;-73
2022/04/27 15:10:17;;;;;;;3.90;2.17;;;27.10;70.40;;;;;;5062465;28;20044;-70
2022/04/27 15:13:21;;;;;;;5.10;2.45;;;27.10;70.20;;;;;;5065496;28;20039;-72
2022/04/27 15:16:27;;;;;;;6.10;2.15;;;26.90;70.10;;;;;;5066242;28;20044;-72
2022/04/27 15:19:32;;;;;;;4.40;2.15;;;26.50;69.30;;;;;;5067662;28;20339;-70
2022/04/27 15:22:42;;;;;;;5.75;2.13;;;26.20;70.60;;;;;;5064338;28;20044;-70
2022/04/27 15:25:46;;;;;;;4.35;2.05;;;26.10;69.80;;;;;;5068609;28;20403;-70
2022/04/27 15:28:51;;;;;;;3.30;2.20;;;25.90;70.50;;;;;;5068804;28;20043;-70
2022/04/27 15:31:55;;;;;;;5.95;2.20;;;25.70;70.70;;;;;;5071304;28;20043;-71
2022/04/27 15:35:00;;;;;;;5.18;2.17;;;25.50;71.90;;;;;;5073166;28;20394;-71
2022/04/27 15:38:06;;;;;;;3.83;2.25;;;25.10;70.30;;;;;;5072053;28;20040;-72
2022/04/27 15:41:10;;;;;;;3.08;2.00;;;25.20;70.60;;;;;;5071380;28;20055;-72
2022/04/27 15:44:15;;;;;;;3.20;2.00;;;25.50;71.90;;;;;;5072298;28;20044;-72
2022/04/27 15:47:20;;;;;;;5.68;2.72;;;25.80;70.00;;;;;;5072161;28;20043;-72
2022/04/27 15:50:28;;;;;;;4.50;2.20;;;25.90;70.90;;;;;;5072782;28;20048;-72
2022/04/27 15:53:33;;;;;;;6.22;2.20;;;25.90;70.30;;;;;;5072880;28;20515;-71
2022/04/27 15:56:38;;;;;;;5.22;2.38;;;25.70;72.60;;;;;;5070987;28;20040;-72
2022/04/27 15:59:42;;;;;;;6.05;2.70;;;25.60;72.70;;;;;;5069840;28;20047;-72
2022/04/27 16:02:46;;;;;;;3.75;2.20;;;25.40;71.80;;;;;;5067839;28;20102;-71
2022/04/27 16:05:52;;;;;;;4.43;2.50;;;25.20;72.10;;;;;;5068165;28;20525;-72
2022/04/27 16:08:56;;;;;;;4.72;2.78;;;25.10;73.40;;;;;;5068296;28;20063;-72
2022/04/27 16:12:01;;;;;;;5.63;3.38;;;25.10;73.20;;;;;;5062018;28;20044;-71
2022/04/27 16:15:07;;;;;;;4.47;2.65;;;24.80;73.00;;;;;;5068201;28;20399;-71
2022/04/27 16:18:11;;;;;;;8.63;2.35;;;24.70;74.10;;;;;;5050944;28;20044;-73
2022/04/27 16:24:41;;;;;;;3.22;2.35;;;24.50;75.00;;;;;;5068896;28;20047;-73
2022/04/27 16:27:45;;;;;;;4.22;2.42;;;24.30;74.40;;;;;;5067492;28;20055;-70
2022/04/27 16:30:49;;;;;;;4.97;2.42;;;24.40;75.40;;;;;;5062091;28;20047;-72
2022/04/27 16:33:53;;;;;;;7.35;4.30;;;24.30;75.50;;;;;;5069335;28;20043;-70
2022/04/27 16:36:58;;;;;;;8.00;4.38;;;24.00;76.40;;;;;;5059893;28;20498;-71
2022/04/27 16:40:06;;;;;;;21.88;14.40;;;23.90;77.30;;;;;;5061454;28;20056;-73
2022/04/27 16:43:13;;;;;;;72.75;38.80;;;23.60;77.50;;;;;;5059287;28;20405;-72
2022/04/27 16:46:17;;;;;;;128.68;63.60;;;23.30;78.40;;;;;;5050226;28;20044;-71